sensor_id;sensor_type;location;lat;lon;timestamp;temperature;humidity
35240;DHT22;21376;50.954;4.716;2023-04-29T00:02:12;11.50;99.90
35240;DHT22;21376;50.954;4.716;2023-04-29T00:04:38;11.40;99.90
35240;DHT22;21376;50.954;4.716;2023-04-29T00:07:04;11.20;99.90
35240;DHT22;21376;50.954;4.716;2023-04-29T00:09:29;11.20;99.90
35240;DHT22;21376;50.954;4.716;2023-04-29T00:11:56;11.10;99.90
35240;DHT22;21376;50.954;4.716;2023-04-29T00:14:22;11.20;99.90
35240;DHT22;21376;50.954;4.716;2023-04-29T00:16:48;11.20;99.90
35240;DHT22;21376;50.954;4.716;2023-04-29T00:19:14;11.30;99.90
35240;DHT22;21376;50.954;4.716;2023-04-29T00:21:40;11.30;99.90
35240;DHT22;21376;50.954;4.716;2023-04-29T00:24:06;11.40;99.90
35240;DHT22;21376;50.954;4.716;2023-04-29T00:26:31;11.40;99.90
35240;DHT22;21376;50.954;4.716;2023-04-29T00:28:57;11.20;99.90
35240;DHT22;21376;50.954;4.716;2023-04-29T00:31:24;11.20;99.90
35240;DHT22;21376;50.954;4.716;2023-04-29T00:33:50;11.20;99.90
35240;DHT22;21376;50.954;4.716;2023-04-29T00:36:17;11.30;99.90
35240;DHT22;21376;50.954;4.716;2023-04-29T00:38:43;11.40;99.90
35240;DHT22;21376;50.954;4.716;2023-04-29T00:41:09;11.40;99.90
35240;DHT22;21376;50.954;4.716;2023-04-29T00:43:35;11.30;99.90
35240;DHT22;21376;50.954;4.716;2023-04-29T00:46:01;11.20;99.90
35240;DHT22;21376;50.954;4.716;2023-04-29T00:48:26;11.20;99.90
35240;DHT22;21376;50.954;4.716;2023-04-29T00:50:54;11.30;99.90
35240;DHT22;21376;50.954;4.716;2023-04-29T00:53:21;11.30;99.90
35240;DHT22;21376;50.954;4.716;2023-04-29T00:55:47;11.20;99.90
35240;DHT22;21376;50.954;4.716;2023-04-29T00:58:16;11.20;99.90
35240;DHT22;21376;50.954;4.716;2023-04-29T01:00:42;11.30;99.90
35240;DHT22;21376;50.954;4.716;2023-04-29T01:03:08;11.40;99.90
35240;DHT22;21376;50.954;4.716;2023-04-29T01:05:34;11.50;99.90
35240;DHT22;21376;50.954;4.716;2023-04-29T01:10:40;11.30;99.90
35240;DHT22;21376;50.954;4.716;2023-04-29T01:13:13;11.30;99.90
35240;DHT22;21376;50.954;4.716;2023-04-29T01:18:10;11.20;99.90
35240;DHT22;21376;50.954;4.716;2023-04-29T01:20:37;11.10;99.90
35240;DHT22;21376;50.954;4.716;2023-04-29T01:23:03;11.20;99.90
35240;DHT22;21376;50.954;4.716;2023-04-29T01:25:29;11.30;99.90
35240;DHT22;21376;50.954;4.716;2023-04-29T01:28:03;11.30;99.90
35240;DHT22;21376;50.954;4.716;2023-04-29T01:30:32;11.50;99.90
35240;DHT22;21376;50.954;4.716;2023-04-29T01:33:11;11.40;99.90
35240;DHT22;21376;50.954;4.716;2023-04-29T01:36:21;11.60;99.90
35240;DHT22;21376;50.954;4.716;2023-04-29T01:41:10;11.40;99.90
35240;DHT22;21376;50.954;4.716;2023-04-29T01:43:37;11.30;99.90
35240;DHT22;21376;50.954;4.716;2023-04-29T01:46:05;11.30;99.90
35240;DHT22;21376;50.954;4.716;2023-04-29T01:48:31;11.30;99.90
35240;DHT22;21376;50.954;4.716;2023-04-29T01:50:57;11.20;99.90
35240;DHT22;21376;50.954;4.716;2023-04-29T01:53:22;11.20;99.90
35240;DHT22;21376;50.954;4.716;2023-04-29T01:55:50;11.10;99.90
35240;DHT22;21376;50.954;4.716;2023-04-29T01:58:16;10.90;99.90
35240;DHT22;21376;50.954;4.716;2023-04-29T02:00:41;10.90;99.90
35240;DHT22;21376;50.954;4.716;2023-04-29T02:03:09;10.90;99.90
35240;DHT22;21376;50.954;4.716;2023-04-29T02:05:35;11.10;99.90
35240;DHT22;21376;50.954;4.716;2023-04-29T02:08:00;11.10;99.90
35240;DHT22;21376;50.954;4.716;2023-04-29T02:10:26;11.00;99.90
35240;DHT22;21376;50.954;4.716;2023-04-29T02:12:52;11.00;99.90
35240;DHT22;21376;50.954;4.716;2023-04-29T02:15:20;10.80;99.90
35240;DHT22;21376;50.954;4.716;2023-04-29T02:17:46;10.70;99.90
35240;DHT22;21376;50.954;4.716;2023-04-29T02:20:11;10.70;99.90
35240;DHT22;21376;50.954;4.716;2023-04-29T02:22:39;10.70;99.90
35240;DHT22;21376;50.954;4.716;2023-04-29T02:25:05;10.80;99.90
35240;DHT22;21376;50.954;4.716;2023-04-29T02:27:31;10.80;99.90
35240;DHT22;21376;50.954;4.716;2023-04-29T02:29:57;10.90;99.90
35240;DHT22;21376;50.954;4.716;2023-04-29T02:32:22;10.90;99.90
35240;DHT22;21376;50.954;4.716;2023-04-29T02:34:48;10.80;99.90
35240;DHT22;21376;50.954;4.716;2023-04-29T02:37:14;10.90;99.90
35240;DHT22;21376;50.954;4.716;2023-04-29T02:39:41;10.90;99.90
35240;DHT22;21376;50.954;4.716;2023-04-29T02:42:08;11.00;99.90
35240;DHT22;21376;50.954;4.716;2023-04-29T02:47:04;11.00;99.90
35240;DHT22;21376;50.954;4.716;2023-04-29T02:49:30;10.90;99.90
35240;DHT22;21376;50.954;4.716;2023-04-29T02:54:52;11.00;99.90
35240;DHT22;21376;50.954;4.716;2023-04-29T02:59:49;10.90;99.90
35240;DHT22;21376;50.954;4.716;2023-04-29T03:02:15;10.90;99.90
35240;DHT22;21376;50.954;4.716;2023-04-29T03:04:42;11.00;99.90
35240;DHT22;21376;50.954;4.716;2023-04-29T03:07:10;11.10;99.90
35240;DHT22;21376;50.954;4.716;2023-04-29T03:09:37;11.00;99.90
35240;DHT22;21376;50.954;4.716;2023-04-29T03:12:05;11.00;99.90
35240;DHT22;21376;50.954;4.716;2023-04-29T03:14:37;11.00;99.90
35240;DHT22;21376;50.954;4.716;2023-04-29T03:17:03;11.00;99.90
35240;DHT22;21376;50.954;4.716;2023-04-29T03:19:32;11.00;99.90
35240;DHT22;21376;50.954;4.716;2023-04-29T03:21:57;11.10;99.90
35240;DHT22;21376;50.954;4.716;2023-04-29T03:24:23;11.10;99.90
35240;DHT22;21376;50.954;4.716;2023-04-29T03:26:49;11.00;99.90
35240;DHT22;21376;50.954;4.716;2023-04-29T03:29:17;11.10;99.90
35240;DHT22;21376;50.954;4.716;2023-04-29T03:31:46;11.20;99.90
35240;DHT22;21376;50.954;4.716;2023-04-29T03:37:14;11.10;99.90
35240;DHT22;21376;50.954;4.716;2023-04-29T03:39:42;11.00;99.90
35240;DHT22;21376;50.954;4.716;2023-04-29T03:42:11;11.10;99.90
35240;DHT22;21376;50.954;4.716;2023-04-29T03:44:38;11.10;99.90
35240;DHT22;21376;50.954;4.716;2023-04-29T03:49:35;11.20;99.90
35240;DHT22;21376;50.954;4.716;2023-04-29T03:52:01;11.20;99.90
35240;DHT22;21376;50.954;4.716;2023-04-29T03:54:29;11.10;99.90
35240;DHT22;21376;50.954;4.716;2023-04-29T03:57:01;11.10;99.90
35240;DHT22;21376;50.954;4.716;2023-04-29T03:59:31;10.90;99.90
35240;DHT22;21376;50.954;4.716;2023-04-29T04:07:43;10.90;99.90
35240;DHT22;21376;50.954;4.716;2023-04-29T04:10:14;10.80;99.90
35240;DHT22;21376;50.954;4.716;2023-04-29T04:12:47;10.80;99.90
35240;DHT22;21376;50.954;4.716;2023-04-29T04:23:16;10.80;99.90
35240;DHT22;21376;50.954;4.716;2023-04-29T04:25:48;10.80;99.90
35240;DHT22;21376;50.954;4.716;2023-04-29T04:28:17;10.70;99.90
35240;DHT22;21376;50.954;4.716;2023-04-29T04:30:46;10.70;99.90
35240;DHT22;21376;50.954;4.716;2023-04-29T04:33:15;10.80;99.90
35240;DHT22;21376;50.954;4.716;2023-04-29T04:35:41;10.70;99.90
35240;DHT22;21376;50.954;4.716;2023-04-29T04:41:11;10.90;99.90
35240;DHT22;21376;50.954;4.716;2023-04-29T04:43:40;11.00;99.90
35240;DHT22;21376;50.954;4.716;2023-04-29T04:46:13;11.00;99.90
35240;DHT22;21376;50.954;4.716;2023-04-29T04:51:09;11.00;99.90
35240;DHT22;21376;50.954;4.716;2023-04-29T04:56:23;11.10;99.90
35240;DHT22;21376;50.954;4.716;2023-04-29T04:58:50;11.40;99.90
35240;DHT22;21376;50.954;4.716;2023-04-29T05:06:17;11.20;99.90
35240;DHT22;21376;50.954;4.716;2023-04-29T05:08:46;11.10;99.90
35240;DHT22;21376;50.954;4.716;2023-04-29T05:11:21;11.20;99.90
35240;DHT22;21376;50.954;4.716;2023-04-29T05:19:22;11.30;99.90
35240;DHT22;21376;50.954;4.716;2023-04-29T05:24:16;11.30;99.90
35240;DHT22;21376;50.954;4.716;2023-04-29T05:26:42;11.40;99.90
35240;DHT22;21376;50.954;4.716;2023-04-29T05:29:11;11.20;99.90
35240;DHT22;21376;50.954;4.716;2023-04-29T05:31:37;11.30;99.90
35240;DHT22;21376;50.954;4.716;2023-04-29T05:34:03;11.20;99.90
35240;DHT22;21376;50.954;4.716;2023-04-29T05:36:32;11.00;99.90
35240;DHT22;21376;50.954;4.716;2023-04-29T05:39:00;11.00;99.90
35240;DHT22;21376;50.954;4.716;2023-04-29T05:41:28;11.20;99.90
35240;DHT22;21376;50.954;4.716;2023-04-29T05:43:54;11.20;99.90
35240;DHT22;21376;50.954;4.716;2023-04-29T05:48:52;11.20;99.90
35240;DHT22;21376;50.954;4.716;2023-04-29T05:51:23;11.20;99.90
35240;DHT22;21376;50.954;4.716;2023-04-29T05:53:50;11.10;99.90
35240;DHT22;21376;50.954;4.716;2023-04-29T05:56:19;11.10;99.90
35240;DHT22;21376;50.954;4.716;2023-04-29T08:15:53;13.70;99.90
35240;DHT22;21376;50.954;4.716;2023-04-29T08:18:21;13.60;99.90
35240;DHT22;21376;50.954;4.716;2023-04-29T08:20:47;13.60;99.90
35240;DHT22;21376;50.954;4.716;2023-04-29T08:23:14;13.90;99.90
35240;DHT22;21376;50.954;4.716;2023-04-29T08:25:40;13.90;99.90
35240;DHT22;21376;50.954;4.716;2023-04-29T08:28:07;13.80;99.90
35240;DHT22;21376;50.954;4.716;2023-04-29T08:30:36;13.90;99.90
35240;DHT22;21376;50.954;4.716;2023-04-29T08:33:02;13.90;99.90
35240;DHT22;21376;50.954;4.716;2023-04-29T08:35:31;13.90;99.90
35240;DHT22;21376;50.954;4.716;2023-04-29T08:38:00;13.90;99.90
35240;DHT22;21376;50.954;4.716;2023-04-29T08:42:58;13.50;99.90
35240;DHT22;21376;50.954;4.716;2023-04-29T08:45:26;13.30;99.90
35240;DHT22;21376;50.954;4.716;2023-04-29T08:50:24;13.50;99.90
35240;DHT22;21376;50.954;4.716;2023-04-29T08:52:54;13.60;99.90
35240;DHT22;21376;50.954;4.716;2023-04-29T08:55:22;13.50;99.90
35240;DHT22;21376;50.954;4.716;2023-04-29T08:57:52;13.60;99.90
35240;DHT22;21376;50.954;4.716;2023-04-29T09:10:26;15.20;99.90
35240;DHT22;21376;50.954;4.716;2023-04-29T09:12:56;15.60;99.90
35240;DHT22;21376;50.954;4.716;2023-04-29T09:15:22;15.90;99.90
35240;DHT22;21376;50.954;4.716;2023-04-29T09:17:48;16.10;99.90
35240;DHT22;21376;50.954;4.716;2023-04-29T09:22:49;16.80;99.90
35240;DHT22;21376;50.954;4.716;2023-04-29T09:25:15;16.90;99.90
35240;DHT22;21376;50.954;4.716;2023-04-29T09:27:42;17.10;99.90
35240;DHT22;21376;50.954;4.716;2023-04-29T09:30:08;17.30;99.90
35240;DHT22;21376;50.954;4.716;2023-04-29T09:32:35;17.70;99.90
35240;DHT22;21376;50.954;4.716;2023-04-29T09:38:11;17.80;99.90
35240;DHT22;21376;50.954;4.716;2023-04-29T09:40:37;17.80;99.90
35240;DHT22;21376;50.954;4.716;2023-04-29T09:43:10;17.90;99.90
35240;DHT22;21376;50.954;4.716;2023-04-29T09:45:38;17.80;99.90
35240;DHT22;21376;50.954;4.716;2023-04-29T09:48:04;17.60;99.90
35240;DHT22;21376;50.954;4.716;2023-04-29T09:50:31;17.90;99.90
35240;DHT22;21376;50.954;4.716;2023-04-29T09:52:57;18.40;99.90
35240;DHT22;21376;50.954;4.716;2023-04-29T09:55:23;18.20;99.90
35240;DHT22;21376;50.954;4.716;2023-04-29T09:57:48;18.50;99.90
35240;DHT22;21376;50.954;4.716;2023-04-29T10:00:14;18.50;99.90
35240;DHT22;21376;50.954;4.716;2023-04-29T10:02:41;18.80;99.90
35240;DHT22;21376;50.954;4.716;2023-04-29T10:05:06;19.10;99.90
35240;DHT22;21376;50.954;4.716;2023-04-29T10:07:34;19.40;99.90
35240;DHT22;21376;50.954;4.716;2023-04-29T10:10:00;19.80;99.90
35240;DHT22;21376;50.954;4.716;2023-04-29T10:12:27;19.70;99.90
35240;DHT22;21376;50.954;4.716;2023-04-29T10:14:54;19.50;99.90
35240;DHT22;21376;50.954;4.716;2023-04-29T10:17:36;19.40;99.90
35240;DHT22;21376;50.954;4.716;2023-04-29T10:20:08;18.80;99.90
35240;DHT22;21376;50.954;4.716;2023-04-29T10:25:08;18.10;99.90
35240;DHT22;21376;50.954;4.716;2023-04-29T10:27:34;18.00;99.90
35240;DHT22;21376;50.954;4.716;2023-04-29T10:30:01;17.80;99.90
35240;DHT22;21376;50.954;4.716;2023-04-29T10:32:29;17.60;99.90
35240;DHT22;21376;50.954;4.716;2023-04-29T10:34:55;17.20;99.90
35240;DHT22;21376;50.954;4.716;2023-04-29T10:37:24;17.20;99.90
35240;DHT22;21376;50.954;4.716;2023-04-29T10:40:09;17.40;99.90
35240;DHT22;21376;50.954;4.716;2023-04-29T10:50:33;17.20;99.90
35240;DHT22;21376;50.954;4.716;2023-04-29T10:53:03;17.50;99.90
35240;DHT22;21376;50.954;4.716;2023-04-29T10:55:29;17.90;99.90
35240;DHT22;21376;50.954;4.716;2023-04-29T10:57:55;17.80;99.90
35240;DHT22;21376;50.954;4.716;2023-04-29T11:00:22;18.10;99.90
35240;DHT22;21376;50.954;4.716;2023-04-29T11:02:48;18.60;99.90
35240;DHT22;21376;50.954;4.716;2023-04-29T11:05:13;18.80;99.90
35240;DHT22;21376;50.954;4.716;2023-04-29T11:07:40;18.90;99.90
35240;DHT22;21376;50.954;4.716;2023-04-29T11:10:34;18.60;99.90
35240;DHT22;21376;50.954;4.716;2023-04-29T11:15:44;17.90;99.90
35240;DHT22;21376;50.954;4.716;2023-04-29T11:18:10;17.60;99.90
35240;DHT22;21376;50.954;4.716;2023-04-29T11:23:22;17.70;99.90
35240;DHT22;21376;50.954;4.716;2023-04-29T11:25:48;18.00;99.90
35240;DHT22;21376;50.954;4.716;2023-04-29T11:28:14;17.80;99.90
35240;DHT22;21376;50.954;4.716;2023-04-29T11:30:40;18.00;99.90
35240;DHT22;21376;50.954;4.716;2023-04-29T11:33:07;18.10;99.90
35240;DHT22;21376;50.954;4.716;2023-04-29T11:35:33;18.60;99.90
35240;DHT22;21376;50.954;4.716;2023-04-29T11:37:59;18.80;99.90
35240;DHT22;21376;50.954;4.716;2023-04-29T11:40:24;19.40;99.90
35240;DHT22;21376;50.954;4.716;2023-04-29T11:42:51;19.90;99.90
35240;DHT22;21376;50.954;4.716;2023-04-29T11:45:19;20.00;99.90
35240;DHT22;21376;50.954;4.716;2023-04-29T11:47:45;20.70;99.90
35240;DHT22;21376;50.954;4.716;2023-04-29T11:50:11;21.60;99.90
35240;DHT22;21376;50.954;4.716;2023-04-29T11:52:37;22.20;99.90
35240;DHT22;21376;50.954;4.716;2023-04-29T11:55:04;22.60;99.90
35240;DHT22;21376;50.954;4.716;2023-04-29T11:57:31;22.70;99.90
35240;DHT22;21376;50.954;4.716;2023-04-29T11:59:57;22.90;99.90
35240;DHT22;21376;50.954;4.716;2023-04-29T12:02:33;22.80;99.90
35240;DHT22;21376;50.954;4.716;2023-04-29T12:05:04;22.40;99.90
35240;DHT22;21376;50.954;4.716;2023-04-29T12:07:31;22.30;99.90
35240;DHT22;21376;50.954;4.716;2023-04-29T12:10:00;22.10;99.90
35240;DHT22;21376;50.954;4.716;2023-04-29T12:12:26;21.60;99.90
35240;DHT22;21376;50.954;4.716;2023-04-29T12:14:54;21.20;99.90
35240;DHT22;21376;50.954;4.716;2023-04-29T12:17:22;20.60;99.90
35240;DHT22;21376;50.954;4.716;2023-04-29T12:19:48;20.20;99.90
35240;DHT22;21376;50.954;4.716;2023-04-29T12:22:18;19.90;99.90
35240;DHT22;21376;50.954;4.716;2023-04-29T12:24:46;19.50;99.90
35240;DHT22;21376;50.954;4.716;2023-04-29T12:27:11;19.30;99.90
35240;DHT22;21376;50.954;4.716;2023-04-29T12:29:39;19.30;99.90
35240;DHT22;21376;50.954;4.716;2023-04-29T12:32:11;19.40;99.90
35240;DHT22;21376;50.954;4.716;2023-04-29T12:34:38;19.30;99.90
35240;DHT22;21376;50.954;4.716;2023-04-29T12:37:08;19.40;99.90
35240;DHT22;21376;50.954;4.716;2023-04-29T12:39:36;19.60;99.90
35240;DHT22;21376;50.954;4.716;2023-04-29T12:42:05;19.60;99.90
35240;DHT22;21376;50.954;4.716;2023-04-29T12:44:34;19.50;99.90
35240;DHT22;21376;50.954;4.716;2023-04-29T12:47:13;19.30;99.90
35240;DHT22;21376;50.954;4.716;2023-04-29T12:49:41;19.10;99.90
35240;DHT22;21376;50.954;4.716;2023-04-29T12:52:12;18.80;99.90
35240;DHT22;21376;50.954;4.716;2023-04-29T12:54:38;18.40;99.90
35240;DHT22;21376;50.954;4.716;2023-04-29T12:57:09;18.40;99.90
35240;DHT22;21376;50.954;4.716;2023-04-29T12:59:37;18.20;99.90
35240;DHT22;21376;50.954;4.716;2023-04-29T13:02:03;18.20;99.90
35240;DHT22;21376;50.954;4.716;2023-04-29T13:04:32;18.40;99.90
35240;DHT22;21376;50.954;4.716;2023-04-29T13:06:58;18.20;99.90
35240;DHT22;21376;50.954;4.716;2023-04-29T13:09:31;18.00;99.90
35240;DHT22;21376;50.954;4.716;2023-04-29T13:11:59;18.00;99.90
35240;DHT22;21376;50.954;4.716;2023-04-29T13:14:25;18.10;99.90
35240;DHT22;21376;50.954;4.716;2023-04-29T13:19:22;18.40;99.90
35240;DHT22;21376;50.954;4.716;2023-04-29T13:21:51;18.40;99.90
35240;DHT22;21376;50.954;4.716;2023-04-29T13:24:19;18.50;99.90
35240;DHT22;21376;50.954;4.716;2023-04-29T13:26:49;18.80;99.90
35240;DHT22;21376;50.954;4.716;2023-04-29T13:29:19;19.10;99.90
35240;DHT22;21376;50.954;4.716;2023-04-29T13:31:48;19.20;99.90
35240;DHT22;21376;50.954;4.716;2023-04-29T13:36:44;20.40;99.90
35240;DHT22;21376;50.954;4.716;2023-04-29T13:39:11;20.70;99.90
35240;DHT22;21376;50.954;4.716;2023-04-29T13:41:36;20.70;99.90
35240;DHT22;21376;50.954;4.716;2023-04-29T13:44:03;20.80;99.90
35240;DHT22;21376;50.954;4.716;2023-04-29T13:46:31;21.40;99.90
35240;DHT22;21376;50.954;4.716;2023-04-29T13:48:59;21.50;99.90
35240;DHT22;21376;50.954;4.716;2023-04-29T13:51:24;21.50;99.90
35240;DHT22;21376;50.954;4.716;2023-04-29T13:54:05;21.50;99.90
35240;DHT22;21376;50.954;4.716;2023-04-29T13:59:08;20.70;99.90
35240;DHT22;21376;50.954;4.716;2023-04-29T14:01:35;20.10;99.90
35240;DHT22;21376;50.954;4.716;2023-04-29T14:04:03;19.90;99.90
35240;DHT22;21376;50.954;4.716;2023-04-29T14:06:29;19.90;99.90
35240;DHT22;21376;50.954;4.716;2023-04-29T14:08:59;20.00;99.90
35240;DHT22;21376;50.954;4.716;2023-04-29T14:11:28;19.90;99.90
35240;DHT22;21376;50.954;4.716;2023-04-29T14:16:32;19.50;99.90
35240;DHT22;21376;50.954;4.716;2023-04-29T14:18:58;19.50;99.90
35240;DHT22;21376;50.954;4.716;2023-04-29T14:21:24;19.20;99.90
35240;DHT22;21376;50.954;4.716;2023-04-29T14:26:38;19.30;99.90
35240;DHT22;21376;50.954;4.716;2023-04-29T14:29:04;19.70;99.90
35240;DHT22;21376;50.954;4.716;2023-04-29T14:31:33;20.00;99.90
35240;DHT22;21376;50.954;4.716;2023-04-29T14:34:09;20.20;99.90
35240;DHT22;21376;50.954;4.716;2023-04-29T14:36:37;20.50;99.90
35240;DHT22;21376;50.954;4.716;2023-04-29T14:39:08;20.40;99.90
35240;DHT22;21376;50.954;4.716;2023-04-29T14:41:37;20.40;99.90
35240;DHT22;21376;50.954;4.716;2023-04-29T14:44:03;20.50;99.90
35240;DHT22;21376;50.954;4.716;2023-04-29T14:46:31;20.70;99.90
35240;DHT22;21376;50.954;4.716;2023-04-29T14:51:29;20.80;99.90
35240;DHT22;21376;50.954;4.716;2023-04-29T14:54:01;21.10;99.90
35240;DHT22;21376;50.954;4.716;2023-04-29T14:56:30;21.00;99.90
35240;DHT22;21376;50.954;4.716;2023-04-29T14:58:59;21.00;99.90
35240;DHT22;21376;50.954;4.716;2023-04-29T15:01:26;21.10;99.90
35240;DHT22;21376;50.954;4.716;2023-04-29T15:03:55;21.00;99.90
35240;DHT22;21376;50.954;4.716;2023-04-29T15:06:23;21.00;99.90
35240;DHT22;21376;50.954;4.716;2023-04-29T15:11:17;20.70;99.90
35240;DHT22;21376;50.954;4.716;2023-04-29T15:13:45;20.70;99.90
35240;DHT22;21376;50.954;4.716;2023-04-29T15:16:10;20.90;99.90
35240;DHT22;21376;50.954;4.716;2023-04-29T15:18:37;21.10;99.90
35240;DHT22;21376;50.954;4.716;2023-04-29T15:21:03;21.20;99.90
35240;DHT22;21376;50.954;4.716;2023-04-29T15:23:32;21.00;99.90
35240;DHT22;21376;50.954;4.716;2023-04-29T15:26:07;20.90;99.90
35240;DHT22;21376;50.954;4.716;2023-04-29T15:28:32;20.60;99.90
35240;DHT22;21376;50.954;4.716;2023-04-29T15:30:58;20.70;99.90
35240;DHT22;21376;50.954;4.716;2023-04-29T15:33:26;20.30;99.90
35240;DHT22;21376;50.954;4.716;2023-04-29T15:35:51;20.30;99.90
35240;DHT22;21376;50.954;4.716;2023-04-29T15:38:20;20.20;99.90
35240;DHT22;21376;50.954;4.716;2023-04-29T15:40:54;20.20;99.90
35240;DHT22;21376;50.954;4.716;2023-04-29T15:45:58;20.00;99.90
35240;DHT22;21376;50.954;4.716;2023-04-29T15:51:06;19.50;99.90
35240;DHT22;21376;50.954;4.716;2023-04-29T15:56:04;19.20;99.90
35240;DHT22;21376;50.954;4.716;2023-04-29T16:01:02;19.10;99.90
35240;DHT22;21376;50.954;4.716;2023-04-29T16:03:29;18.90;99.90
35240;DHT22;21376;50.954;4.716;2023-04-29T16:05:55;18.80;99.90
35240;DHT22;21376;50.954;4.716;2023-04-29T16:10:52;18.70;99.90
35240;DHT22;21376;50.954;4.716;2023-04-29T16:18:25;18.80;99.90
35240;DHT22;21376;50.954;4.716;2023-04-29T16:20:52;18.70;99.90
35240;DHT22;21376;50.954;4.716;2023-04-29T16:23:20;18.70;99.90
35240;DHT22;21376;50.954;4.716;2023-04-29T16:25:49;18.60;99.90
35240;DHT22;21376;50.954;4.716;2023-04-29T16:28:18;18.70;99.90
35240;DHT22;21376;50.954;4.716;2023-04-29T16:30:45;18.80;99.90
35240;DHT22;21376;50.954;4.716;2023-04-29T16:35:42;19.00;99.90
35240;DHT22;21376;50.954;4.716;2023-04-29T16:38:15;18.80;99.90
35240;DHT22;21376;50.954;4.716;2023-04-29T16:40:42;18.80;99.90
35240;DHT22;21376;50.954;4.716;2023-04-29T16:43:10;18.70;99.90
35240;DHT22;21376;50.954;4.716;2023-04-29T16:48:27;18.40;99.90
35240;DHT22;21376;50.954;4.716;2023-04-29T16:53:51;18.60;99.90
35240;DHT22;21376;50.954;4.716;2023-04-29T16:58:51;18.20;99.90
35240;DHT22;21376;50.954;4.716;2023-04-29T17:04:21;18.30;99.90
35240;DHT22;21376;50.954;4.716;2023-04-29T17:06:47;18.10;99.90
35240;DHT22;21376;50.954;4.716;2023-04-29T17:09:15;18.10;99.90
35240;DHT22;21376;50.954;4.716;2023-04-29T17:11:48;17.90;99.90
35240;DHT22;21376;50.954;4.716;2023-04-29T17:14:14;17.80;99.90
35240;DHT22;21376;50.954;4.716;2023-04-29T17:16:42;17.70;99.90
35240;DHT22;21376;50.954;4.716;2023-04-29T17:19:13;17.80;99.90
35240;DHT22;21376;50.954;4.716;2023-04-29T17:21:40;18.00;99.90
35240;DHT22;21376;50.954;4.716;2023-04-29T17:24:06;17.90;99.90
35240;DHT22;21376;50.954;4.716;2023-04-29T17:26:42;18.00;99.90
35240;DHT22;21376;50.954;4.716;2023-04-29T17:29:20;17.90;99.90
35240;DHT22;21376;50.954;4.716;2023-04-29T17:31:46;17.80;99.90
35240;DHT22;21376;50.954;4.716;2023-04-29T17:34:40;17.70;99.90
35240;DHT22;21376;50.954;4.716;2023-04-29T17:37:09;17.60;99.90
35240;DHT22;21376;50.954;4.716;2023-04-29T17:39:34;17.50;99.90
35240;DHT22;21376;50.954;4.716;2023-04-29T17:42:03;17.40;99.90
35240;DHT22;21376;50.954;4.716;2023-04-29T17:47:01;17.40;99.90
35240;DHT22;21376;50.954;4.716;2023-04-29T17:49:28;17.40;99.90
35240;DHT22;21376;50.954;4.716;2023-04-29T17:51:57;17.50;99.90
35240;DHT22;21376;50.954;4.716;2023-04-29T17:56:54;17.40;99.90
35240;DHT22;21376;50.954;4.716;2023-04-29T18:04:33;17.30;99.90
35240;DHT22;21376;50.954;4.716;2023-04-29T18:06:58;17.30;99.90
35240;DHT22;21376;50.954;4.716;2023-04-29T18:09:25;17.20;99.90
35240;DHT22;21376;50.954;4.716;2023-04-29T18:11:51;17.00;99.90
35240;DHT22;21376;50.954;4.716;2023-04-29T18:14:16;16.90;99.90
35240;DHT22;21376;50.954;4.716;2023-04-29T18:16:43;16.90;99.90
35240;DHT22;21376;50.954;4.716;2023-04-29T18:19:09;16.70;99.90
35240;DHT22;21376;50.954;4.716;2023-04-29T18:21:35;16.60;99.90
35240;DHT22;21376;50.954;4.716;2023-04-29T18:24:02;16.50;99.90
35240;DHT22;21376;50.954;4.716;2023-04-29T18:26:31;16.40;99.90
35240;DHT22;21376;50.954;4.716;2023-04-29T18:29:08;16.30;99.90
35240;DHT22;21376;50.954;4.716;2023-04-29T18:31:35;16.20;99.90
35240;DHT22;21376;50.954;4.716;2023-04-29T18:34:00;16.20;99.90
35240;DHT22;21376;50.954;4.716;2023-04-29T18:36:26;16.00;99.90
35240;DHT22;21376;50.954;4.716;2023-04-29T18:38:53;15.90;99.90
35240;DHT22;21376;50.954;4.716;2023-04-29T18:41:19;15.80;99.90
35240;DHT22;21376;50.954;4.716;2023-04-29T18:43:45;15.70;99.90
35240;DHT22;21376;50.954;4.716;2023-04-29T18:46:10;15.50;99.90
35240;DHT22;21376;50.954;4.716;2023-04-29T18:48:36;15.40;99.90
35240;DHT22;21376;50.954;4.716;2023-04-29T18:51:04;15.30;99.90
35240;DHT22;21376;50.954;4.716;2023-04-29T18:53:30;15.20;99.90
35240;DHT22;21376;50.954;4.716;2023-04-29T18:55:56;15.10;99.90
35240;DHT22;21376;50.954;4.716;2023-04-29T18:58:21;15.10;99.90
35240;DHT22;21376;50.954;4.716;2023-04-29T19:00:50;15.00;99.90
35240;DHT22;21376;50.954;4.716;2023-04-29T19:03:16;14.90;99.90
35240;DHT22;21376;50.954;4.716;2023-04-29T19:05:41;14.90;99.90
35240;DHT22;21376;50.954;4.716;2023-04-29T19:08:07;14.70;99.90
35240;DHT22;21376;50.954;4.716;2023-04-29T19:10:33;14.60;99.90
35240;DHT22;21376;50.954;4.716;2023-04-29T19:12:58;14.60;99.90
35240;DHT22;21376;50.954;4.716;2023-04-29T19:15:24;14.50;99.90
35240;DHT22;21376;50.954;4.716;2023-04-29T19:17:55;14.30;99.90
35240;DHT22;21376;50.954;4.716;2023-04-29T19:20:23;14.20;99.90
35240;DHT22;21376;50.954;4.716;2023-04-29T19:22:50;14.10;99.90
35240;DHT22;21376;50.954;4.716;2023-04-29T19:27:45;14.10;99.90
35240;DHT22;21376;50.954;4.716;2023-04-29T19:30:13;14.00;99.90
35240;DHT22;21376;50.954;4.716;2023-04-29T19:32:39;14.00;99.90
35240;DHT22;21376;50.954;4.716;2023-04-29T19:35:05;14.00;99.90
35240;DHT22;21376;50.954;4.716;2023-04-29T19:37:31;13.90;99.90
35240;DHT22;21376;50.954;4.716;2023-04-29T19:39:57;13.80;99.90
35240;DHT22;21376;50.954;4.716;2023-04-29T19:42:23;13.60;99.90
35240;DHT22;21376;50.954;4.716;2023-04-29T19:44:50;13.50;99.90
35240;DHT22;21376;50.954;4.716;2023-04-29T19:47:16;13.30;99.90
35240;DHT22;21376;50.954;4.716;2023-04-29T19:49:42;13.20;99.90
35240;DHT22;21376;50.954;4.716;2023-04-29T19:52:08;13.10;99.90
35240;DHT22;21376;50.954;4.716;2023-04-29T19:54:34;13.10;99.90
35240;DHT22;21376;50.954;4.716;2023-04-29T19:56:59;13.00;99.90
35240;DHT22;21376;50.954;4.716;2023-04-29T19:59:26;13.10;99.90
35240;DHT22;21376;50.954;4.716;2023-04-29T20:01:52;13.00;99.90
35240;DHT22;21376;50.954;4.716;2023-04-29T20:04:18;13.10;99.90
35240;DHT22;21376;50.954;4.716;2023-04-29T20:06:44;12.90;99.90
35240;DHT22;21376;50.954;4.716;2023-04-29T20:09:09;12.90;99.90
35240;DHT22;21376;50.954;4.716;2023-04-29T20:11:35;12.90;99.90
35240;DHT22;21376;50.954;4.716;2023-04-29T20:14:01;12.80;99.90
35240;DHT22;21376;50.954;4.716;2023-04-29T20:16:26;12.60;99.90
35240;DHT22;21376;50.954;4.716;2023-04-29T20:18:54;12.50;99.90
35240;DHT22;21376;50.954;4.716;2023-04-29T20:21:20;12.60;99.90
35240;DHT22;21376;50.954;4.716;2023-04-29T20:23:47;12.60;99.90
35240;DHT22;21376;50.954;4.716;2023-04-29T20:26:14;12.60;99.90
35240;DHT22;21376;50.954;4.716;2023-04-29T20:28:40;12.50;99.90